createdAt,value
2019-02-22T00:00:45.317Z,64.22
2019-02-22T00:02:03.117Z,68.62
2019-02-22T00:03:07.893Z,60.92
2019-02-22T00:04:13.983Z,62.60
2019-02-22T00:05:18.735Z,59.08
2019-02-22T00:06:24.187Z,54.35
2019-02-22T00:07:29.009Z,53.38
2019-02-22T00:08:33.745Z,60.17
2019-02-22T00:09:49.154Z,63.25
2019-02-22T00:10:46.519Z,64.20
2019-02-22T00:11:51.833Z,51.35
2019-02-22T00:12:56.596Z,74.00
2019-02-22T00:14:03.541Z,58.28
2019-02-22T00:15:16.347Z,60.80
2019-02-22T00:16:21.298Z,77.60
2019-02-22T00:17:30.202Z,75.00
2019-02-22T00:18:44.111Z,63.52
2019-02-22T00:19:48.765Z,56.05
2019-02-22T00:20:53.977Z,57.78
2019-02-22T00:21:59.154Z,71.90
2019-02-22T00:23:04.134Z,59.18
2019-02-22T00:24:08.921Z,70.67
2019-02-22T00:25:14.207Z,54.55
2019-02-22T00:26:21.900Z,60.17
2019-02-22T00:27:31.277Z,59.10
2019-02-22T00:28:36.143Z,57.60
2019-02-22T00:29:40.894Z,64.95
2019-02-22T00:30:47.905Z,64.37
2019-02-22T00:31:53.859Z,61.48
2019-02-22T00:32:59.205Z,63.85
2019-02-22T00:34:04.024Z,57.95
2019-02-22T00:35:10.823Z,60.65
2019-02-22T00:36:17.028Z,64.20
2019-02-22T00:37:22.046Z,70.72
2019-02-22T00:38:30.124Z,61.50
2019-02-22T00:39:35.250Z,71.37
2019-02-22T00:40:40.121Z,60.50
2019-02-22T00:41:46.142Z,70.05
2019-02-22T00:42:50.971Z,60.00
2019-02-22T00:44:00.890Z,65.28
2019-02-22T00:45:06.218Z,64.95
2019-02-22T00:46:11.330Z,60.80
2019-02-22T00:47:16.260Z,59.55
2019-02-22T00:48:21.358Z,65.42
2019-02-22T00:49:26.209Z,59.00
2019-02-22T00:50:45.217Z,61.65
2019-02-22T00:52:08.608Z,61.25
2019-02-22T00:53:13.357Z,73.33
2019-02-22T00:54:18.322Z,56.42
2019-02-22T00:55:23.135Z,63.10
2019-02-22T00:56:29.346Z,62.15
2019-02-22T00:57:36.084Z,63.73
2019-02-22T00:58:41.296Z,60.08
2019-02-22T00:59:46.332Z,61.68
2019-02-22T01:00:52.057Z,62.20
2019-02-22T01:01:57.439Z,66.85
2019-02-22T01:03:11.397Z,64.65
2019-02-22T01:04:19.040Z,64.45
2019-02-22T01:05:24.180Z,65.25
2019-02-22T01:06:28.932Z,57.55
2019-02-22T01:07:33.725Z,66.77
2019-02-22T01:08:38.537Z,65.97
2019-02-22T01:09:43.969Z,59.00
2019-02-22T01:10:48.773Z,59.25
2019-02-22T01:11:53.522Z,74.53
2019-02-22T01:12:58.322Z,83.95
2019-02-22T01:14:03.264Z,75.40
2019-02-22T01:15:08.437Z,69.00
2019-02-22T01:16:13.328Z,65.70
2019-02-22T01:17:18.273Z,58.60
2019-02-22T01:18:23.087Z,68.10
2019-02-22T01:19:27.798Z,67.42
2019-02-22T01:20:32.574Z,69.65
2019-02-22T01:21:37.372Z,75.50
2019-02-22T01:22:51.117Z,70.65
2019-02-22T01:23:58.955Z,72.35
2019-02-22T01:25:03.696Z,89.28
2019-02-22T01:26:08.806Z,72.10
2019-02-22T01:27:13.787Z,80.70
2019-02-22T01:28:18.561Z,81.72
2019-02-22T01:29:23.862Z,73.17
2019-02-22T01:30:28.972Z,71.87
2019-02-22T01:31:33.731Z,77.60
2019-02-22T01:32:38.529Z,81.85
2019-02-22T01:33:43.303Z,74.40
2019-02-22T01:34:48.146Z,79.00
2019-02-22T01:35:53.618Z,72.42
2019-02-22T01:36:58.346Z,77.37
2019-02-22T01:38:03.130Z,77.50
2019-02-22T01:39:07.997Z,78.80
2019-02-22T01:40:12.867Z,75.90
2019-02-22T01:41:18.234Z,70.65
2019-02-22T01:42:22.959Z,65.28
2019-02-22T01:43:27.771Z,81.05
2019-02-22T01:44:32.865Z,83.27
2019-02-22T01:45:37.752Z,75.52
2019-02-22T01:46:42.894Z,71.82
2019-02-22T01:47:49.085Z,73.70
2019-02-22T01:48:55.597Z,70.65
2019-02-22T01:50:00.986Z,77.27
2019-02-22T01:51:05.746Z,68.62
2019-02-22T01:52:10.553Z,71.50
2019-02-22T01:53:15.356Z,73.87
2019-02-22T01:54:20.106Z,74.47
2019-02-22T01:55:25.186Z,73.33
2019-02-22T01:56:30.173Z,77.45
2019-02-22T01:57:35.160Z,68.65
2019-02-22T01:58:48.401Z,74.70
2019-02-22T01:59:46.320Z,77.50
2019-02-22T02:00:51.088Z,86.37
2019-02-22T02:01:55.841Z,71.97
2019-02-22T02:03:00.692Z,74.97
2019-02-22T02:04:05.420Z,79.80
2019-02-22T02:05:10.485Z,73.40
2019-02-22T02:06:15.218Z,79.42
2019-02-22T02:07:20.237Z,80.12
2019-02-22T02:08:26.293Z,78.40
2019-02-22T02:09:31.113Z,76.28
2019-02-22T02:10:36.497Z,74.47
2019-02-22T02:11:41.224Z,73.65
2019-02-22T02:12:46.230Z,70.60
2019-02-22T02:13:53.766Z,75.32
2019-02-22T02:14:58.518Z,81.28
2019-02-22T02:16:03.406Z,74.85
2019-02-22T02:17:08.156Z,79.37
2019-02-22T02:18:13.033Z,75.97
2019-02-22T02:19:17.805Z,69.12
2019-02-22T02:20:24.313Z,76.42
2019-02-22T02:21:29.028Z,69.22
2019-02-22T02:22:33.761Z,67.27
2019-02-22T02:23:38.586Z,72.08
2019-02-22T02:24:43.345Z,70.62
2019-02-22T02:25:48.085Z,76.40
2019-02-22T02:26:52.985Z,77.03
2019-02-22T02:27:57.736Z,71.90
2019-02-22T02:29:06.209Z,74.50
2019-02-22T02:30:11.330Z,78.75
2019-02-22T02:31:16.365Z,71.82
2019-02-22T02:32:21.515Z,71.07
2019-02-22T02:33:26.723Z,77.22
2019-02-22T02:34:31.539Z,72.17
2019-02-22T02:35:36.687Z,70.52
2019-02-22T02:36:42.202Z,79.27
2019-02-22T02:37:47.592Z,73.28
2019-02-22T02:38:52.920Z,70.30
2019-02-22T02:39:57.751Z,68.37
2019-02-22T02:41:08.363Z,70.25
2019-02-22T02:42:09.023Z,71.25
2019-02-22T02:43:13.799Z,70.65
2019-02-22T02:44:18.551Z,65.32
2019-02-22T02:45:23.325Z,63.45
2019-02-22T02:46:28.069Z,69.00
2019-02-22T02:47:32.893Z,69.95
2019-02-22T02:48:37.633Z,64.77
2019-02-22T02:49:42.395Z,61.75
2019-02-22T02:50:47.145Z,65.80
2019-02-22T02:51:52.191Z,59.23
2019-02-22T02:52:57.350Z,60.40
2019-02-22T02:54:02.612Z,65.50
2019-02-22T02:55:31.994Z,63.15
2019-02-22T02:56:36.810Z,62.78
2019-02-22T02:57:42.001Z,64.50
2019-02-22T02:58:47.421Z,57.08
2019-02-22T02:59:52.262Z,63.70
2019-02-22T03:00:57.419Z,60.25
2019-02-22T03:02:03.536Z,63.50
2019-02-22T03:03:08.292Z,64.62
2019-02-22T03:04:13.249Z,64.42
2019-02-22T03:05:19.817Z,63.65
2019-02-22T03:06:31.466Z,60.88
2019-02-22T03:07:43.591Z,60.85
2019-02-22T03:08:48.416Z,61.20
2019-02-22T03:09:53.243Z,59.27
2019-02-22T03:10:57.996Z,67.65
2019-02-22T03:12:02.729Z,61.83
2019-02-22T03:13:07.437Z,66.25
2019-02-22T03:14:12.229Z,63.08
2019-02-22T03:15:18.317Z,63.85
2019-02-22T03:16:23.121Z,64.87
2019-02-22T03:17:27.906Z,68.92
2019-02-22T03:18:33.542Z,65.90
2019-02-22T03:19:38.878Z,69.85
2019-02-22T03:20:43.628Z,65.80
2019-02-22T03:21:48.386Z,60.88
2019-02-22T03:22:53.137Z,57.35
2019-02-22T03:23:58.109Z,61.50
2019-02-22T03:25:03.275Z,61.37
2019-02-22T03:26:08.248Z,59.05
2019-02-22T03:27:12.960Z,58.10
2019-02-22T03:28:17.746Z,59.60
2019-02-22T03:29:22.805Z,60.00
2019-02-22T03:30:27.591Z,58.45
2019-02-22T03:31:33.113Z,58.90
2019-02-22T03:32:38.662Z,57.60
2019-02-22T03:33:43.875Z,64.12
2019-02-22T03:34:48.840Z,59.10
2019-02-22T03:35:54.055Z,61.95
2019-02-22T03:36:58.949Z,57.05
2019-02-22T03:38:05.982Z,53.78
2019-02-22T03:39:10.714Z,59.65
2019-02-22T03:40:15.483Z,57.78
2019-02-22T03:41:31.930Z,56.92
2019-02-22T03:42:27.012Z,60.38
2019-02-22T03:43:31.909Z,56.37
2019-02-22T03:44:37.532Z,56.95
2019-02-22T03:45:42.321Z,59.77
2019-02-22T03:46:47.348Z,56.95
2019-02-22T03:47:52.048Z,58.40
2019-02-22T03:48:56.885Z,54.55
2019-02-22T03:50:01.764Z,62.43
2019-02-22T03:51:07.097Z,60.28
2019-02-22T03:52:28.547Z,58.25
2019-02-22T03:53:37.049Z,60.70
2019-02-22T03:54:41.796Z,63.87
2019-02-22T03:55:46.710Z,66.07
2019-02-22T03:56:51.472Z,62.17
2019-02-22T03:57:56.218Z,65.20
2019-02-22T03:59:01.005Z,61.98
2019-02-22T04:00:06.207Z,64.12
2019-02-22T04:01:12.821Z,61.15
2019-02-22T04:02:17.561Z,65.70
2019-02-22T04:03:22.303Z,69.85
2019-02-22T04:04:27.276Z,62.53
2019-02-22T04:05:34.922Z,63.20
2019-02-22T04:06:39.693Z,66.40
2019-02-22T04:07:44.455Z,59.30
2019-02-22T04:08:49.205Z,62.03
2019-02-22T04:09:54.037Z,59.30
2019-02-22T04:10:58.880Z,62.67
2019-02-22T04:12:03.628Z,61.95
2019-02-22T04:13:08.382Z,63.38
2019-02-22T04:14:13.482Z,66.92
2019-02-22T04:15:18.813Z,58.55
2019-02-22T04:16:23.809Z,58.85
2019-02-22T04:17:28.555Z,60.80
2019-02-22T04:18:33.395Z,57.65
2019-02-22T04:19:38.345Z,58.15
2019-02-22T04:20:43.321Z,61.37
2019-02-22T04:21:49.688Z,59.80
2019-02-22T04:22:54.697Z,56.37
2019-02-22T04:23:59.416Z,59.65
2019-02-22T04:25:04.139Z,59.60
2019-02-22T04:26:08.983Z,58.15
2019-02-22T04:27:13.789Z,57.40
2019-02-22T04:28:18.551Z,52.93
2019-02-22T04:29:23.277Z,60.12
2019-02-22T04:30:27.993Z,55.75
2019-02-22T04:31:32.807Z,55.28
2019-02-22T04:32:37.633Z,56.55
2019-02-22T04:33:42.389Z,55.33
2019-02-22T04:34:47.149Z,56.00
2019-02-22T04:35:52.089Z,54.45
2019-02-22T04:36:56.889Z,59.93
2019-02-22T04:38:01.741Z,57.55
2019-02-22T04:39:40.214Z,54.33
2019-02-22T04:40:45.320Z,57.45
2019-02-22T04:41:58.166Z,63.20
2019-02-22T04:42:59.650Z,54.55
2019-02-22T04:44:04.571Z,62.45
2019-02-22T04:45:09.701Z,61.95
2019-02-22T04:46:14.516Z,65.83
2019-02-22T04:47:19.354Z,63.52
2019-02-22T04:48:24.275Z,69.32
2019-02-22T04:49:41.031Z,64.12
2019-02-22T04:50:45.839Z,64.95
2019-02-22T04:51:52.941Z,64.77
2019-02-22T04:53:00.092Z,65.08
2019-02-22T04:54:07.504Z,68.95
2019-02-22T04:55:12.406Z,67.47
2019-02-22T04:56:17.181Z,61.77
2019-02-22T04:57:22.227Z,70.78
2019-02-22T04:58:27.562Z,67.17
2019-02-22T04:59:32.377Z,69.07
2019-02-22T05:00:37.322Z,66.37
2019-02-22T05:01:45.033Z,77.42
2019-02-22T05:02:49.795Z,69.05
2019-02-22T05:03:55.088Z,73.55
2019-02-22T05:04:59.887Z,74.70
2019-02-22T05:06:05.034Z,73.02
2019-02-22T05:07:10.185Z,73.05
2019-02-22T05:08:17.111Z,76.80
2019-02-22T05:09:22.016Z,78.83
2019-02-22T05:10:27.481Z,73.70
2019-02-22T05:11:32.266Z,69.00
2019-02-22T05:12:37.168Z,74.75
2019-02-22T05:13:41.942Z,72.08
2019-02-22T05:14:47.133Z,68.90
2019-02-22T05:15:54.962Z,74.03
2019-02-22T05:16:59.786Z,71.10
2019-02-22T05:18:12.296Z,75.12
2019-02-22T05:19:23.092Z,76.47
2019-02-22T05:20:27.939Z,68.72
2019-02-22T05:21:37.810Z,75.85
2019-02-22T05:22:44.919Z,67.03
2019-02-22T05:23:50.213Z,72.78
2019-02-22T05:24:55.044Z,72.10
2019-02-22T05:26:00.266Z,76.80
2019-02-22T05:27:05.115Z,70.42
2019-02-22T05:28:09.901Z,68.62
2019-02-22T05:29:14.722Z,71.30
2019-02-22T05:30:23.994Z,71.42
2019-02-22T05:31:28.962Z,66.30
2019-02-22T05:32:33.978Z,74.15
2019-02-22T05:33:38.930Z,78.15
2019-02-22T05:34:43.914Z,68.00
2019-02-22T05:35:49.592Z,69.45
2019-02-22T05:36:58.482Z,67.00
2019-02-22T05:38:03.296Z,73.02
2019-02-22T05:39:18.681Z,74.72
2019-02-22T05:40:15.123Z,70.42
2019-02-22T05:41:20.436Z,67.78
2019-02-22T05:42:28.675Z,70.55
2019-02-22T05:43:33.387Z,71.00
2019-02-22T05:44:38.243Z,74.22
2019-02-22T05:45:44.286Z,71.70
2019-02-22T05:46:59.886Z,69.60
2019-02-22T05:47:56.163Z,77.92
2019-02-22T05:49:01.220Z,78.62
2019-02-22T05:50:06.673Z,70.83
2019-02-22T05:51:12.035Z,73.07
2019-02-22T05:52:16.948Z,75.80
2019-02-22T05:53:21.857Z,73.75
2019-02-22T05:54:26.729Z,71.57
2019-02-22T05:55:32.390Z,69.80
2019-02-22T05:56:37.324Z,74.58
2019-02-22T05:57:42.172Z,75.70
2019-02-22T05:58:47.009Z,69.12
2019-02-22T05:59:51.818Z,70.10
2019-02-22T06:00:58.649Z,69.17
2019-02-22T06:02:06.574Z,72.58
2019-02-22T06:03:14.995Z,67.12
2019-02-22T06:04:22.134Z,71.37
2019-02-22T06:05:29.883Z,70.85
2019-02-22T06:06:34.715Z,69.42
2019-02-22T06:07:43.166Z,78.62
2019-02-22T06:08:48.251Z,74.00
2019-02-22T06:09:53.909Z,72.35
2019-02-22T06:11:00.963Z,83.40
2019-02-22T06:12:06.615Z,68.67
2019-02-22T06:13:14.803Z,75.80
2019-02-22T06:14:22.699Z,78.83
2019-02-22T06:15:37.307Z,70.42
2019-02-22T06:16:47.300Z,79.67
2019-02-22T06:17:55.202Z,77.85
2019-02-22T06:19:01.255Z,88.72
2019-02-22T06:20:07.578Z,85.12
2019-02-22T06:21:17.873Z,73.17
2019-02-22T06:22:29.581Z,88.33
2019-02-22T06:23:30.441Z,93.00
2019-02-22T06:24:36.134Z,84.47
2019-02-22T06:25:43.708Z,87.70
2019-02-22T06:26:49.197Z,90.72
2019-02-22T06:27:54.568Z,92.67
2019-02-22T06:28:59.421Z,84.52
2019-02-22T06:30:04.507Z,89.83
2019-02-22T06:31:11.016Z,84.70
2019-02-22T06:32:18.726Z,82.72
2019-02-22T06:33:24.475Z,91.15
2019-02-22T06:34:30.169Z,92.72
2019-02-22T06:35:35.029Z,90.50
2019-02-22T06:36:39.942Z,98.85
2019-02-22T06:37:45.151Z,90.65
2019-02-22T06:38:50.640Z,100.60
2019-02-22T06:39:55.663Z,99.20
2019-02-22T06:41:01.260Z,107.63
2019-02-22T06:42:06.683Z,95.95
2019-02-22T06:43:11.525Z,94.83
2019-02-22T06:44:17.160Z,94.28
2019-02-22T06:45:24.303Z,115.67
2019-02-22T06:46:29.332Z,95.03
2019-02-22T06:47:34.953Z,98.47
2019-02-22T06:48:39.731Z,98.55
2019-02-22T06:49:44.675Z,98.60
2019-02-22T06:50:49.697Z,102.02
2019-02-22T06:51:54.700Z,104.97
2019-02-22T06:53:01.658Z,102.05
2019-02-22T06:54:10.135Z,98.70
2019-02-22T06:55:14.981Z,101.67
2019-02-22T06:56:20.020Z,106.40
2019-02-22T06:57:24.890Z,100.30
2019-02-22T06:58:29.815Z,93.97
2019-02-22T06:59:35.258Z,112.30
2019-02-22T07:00:40.062Z,102.25
2019-02-22T07:01:45.093Z,99.83
2019-02-22T07:02:50.252Z,100.30
2019-02-22T07:03:55.118Z,97.92
2019-02-22T07:05:02.903Z,100.10
2019-02-22T07:06:07.699Z,94.90
2019-02-22T07:07:13.125Z,94.72
2019-02-22T07:08:17.960Z,100.35
2019-02-22T07:09:22.792Z,103.47
2019-02-22T07:10:28.635Z,103.47
2019-02-22T07:11:58.104Z,92.47
2019-02-22T07:13:08.503Z,100.15
2019-02-22T07:14:13.397Z,103.35
2019-02-22T07:15:18.448Z,104.92
2019-02-22T07:16:23.189Z,98.78
2019-02-22T07:17:28.276Z,105.32
2019-02-22T07:18:35.759Z,102.02
2019-02-22T07:19:43.536Z,110.05
2019-02-22T07:20:48.350Z,108.05
2019-02-22T07:21:53.291Z,108.15
2019-02-22T07:22:58.426Z,106.97
2019-02-22T07:24:03.381Z,99.62
2019-02-22T07:25:12.067Z,103.27
2019-02-22T07:26:17.246Z,99.50
2019-02-22T07:27:22.642Z,98.45
2019-02-22T07:28:29.562Z,99.13
2019-02-22T07:29:34.875Z,112.47
2019-02-22T07:30:40.192Z,98.58
2019-02-22T07:31:45.173Z,99.37
2019-02-22T07:32:53.489Z,99.15
2019-02-22T07:33:58.321Z,93.60
2019-02-22T07:35:06.879Z,108.78
2019-02-22T07:36:11.712Z,98.95
2019-02-22T07:37:20.017Z,101.45
2019-02-22T07:38:27.079Z,106.80
2019-02-22T07:39:36.360Z,107.47
2019-02-22T07:40:42.195Z,107.15
2019-02-22T07:41:47.151Z,118.35
2019-02-22T07:42:51.934Z,106.80
2019-02-22T07:43:56.858Z,102.15
2019-02-22T07:45:02.036Z,108.07
2019-02-22T07:46:08.083Z,99.58
2019-02-22T07:47:13.028Z,101.27
2019-02-22T07:48:18.466Z,103.42
2019-02-22T07:49:25.481Z,103.50
2019-02-22T07:50:30.796Z,101.27
2019-02-22T07:51:35.595Z,101.18
2019-02-22T07:52:41.125Z,98.03
2019-02-22T07:53:46.263Z,111.75
2019-02-22T07:54:51.260Z,106.92
2019-02-22T07:55:56.722Z,98.00
2019-02-22T07:57:02.263Z,105.07
2019-02-22T07:58:08.762Z,104.70
2019-02-22T07:59:14.092Z,105.20
2019-02-22T08:00:21.593Z,106.80
2019-02-22T08:01:27.065Z,105.80
2019-02-22T08:02:32.301Z,109.65
2019-02-22T08:03:40.011Z,116.70
2019-02-22T08:04:45.175Z,109.42
2019-02-22T08:05:58.105Z,109.22
2019-02-22T08:07:08.468Z,99.25
2019-02-22T08:08:13.368Z,101.62
2019-02-22T08:09:22.716Z,108.95
2019-02-22T08:10:27.536Z,112.50
2019-02-22T08:11:32.859Z,106.75
2019-02-22T08:12:37.862Z,103.30
2019-02-22T08:13:42.764Z,100.53
2019-02-22T08:14:48.150Z,102.02
2019-02-22T08:15:53.444Z,103.02
2019-02-22T08:16:58.270Z,93.25
2019-02-22T08:18:03.218Z,99.60
2019-02-22T08:19:11.564Z,94.15
2019-02-22T08:20:16.743Z,98.97
2019-02-22T08:21:23.131Z,99.13
2019-02-22T08:22:35.223Z,102.47
2019-02-22T08:23:40.182Z,100.35
2019-02-22T08:24:45.886Z,103.17
2019-02-22T08:25:50.926Z,114.55
2019-02-22T08:26:57.327Z,103.45
2019-02-22T08:28:02.844Z,101.40
2019-02-22T08:29:10.279Z,111.62
2019-02-22T08:30:15.485Z,99.40
2019-02-22T08:31:20.720Z,90.83
2019-02-22T08:32:31.606Z,104.20
2019-02-22T08:33:39.603Z,103.70
2019-02-22T08:34:45.948Z,109.83
2019-02-22T08:35:58.475Z,101.05
2019-02-22T08:37:03.301Z,103.62
2019-02-22T08:38:12.055Z,96.95
2019-02-22T08:39:17.286Z,98.52
2019-02-22T08:40:32.502Z,98.72
2019-02-22T08:41:38.431Z,92.33
2019-02-22T08:42:43.714Z,102.40
2019-02-22T08:43:52.222Z,90.17
2019-02-22T08:45:02.339Z,92.75
2019-02-22T08:46:07.863Z,83.82
2019-02-22T08:47:14.424Z,92.35
2019-02-22T08:48:22.390Z,98.90
2019-02-22T08:49:31.099Z,97.15
2019-02-22T08:50:36.247Z,95.77
2019-02-22T08:51:42.199Z,91.28
2019-02-22T08:52:47.277Z,87.78
2019-02-22T08:53:52.514Z,102.05
2019-02-22T08:54:57.694Z,100.80
2019-02-22T08:56:03.902Z,93.72
2019-02-22T08:57:09.269Z,102.45
2019-02-22T08:58:17.277Z,103.55
2019-02-22T08:59:33.072Z,100.67
2019-02-22T09:00:38.267Z,113.83
2019-02-22T09:01:43.087Z,94.72
2019-02-22T09:02:48.280Z,97.85
2019-02-22T09:03:56.458Z,101.72
2019-02-22T09:05:01.365Z,95.77
2019-02-22T09:06:06.431Z,90.87
2019-02-22T09:07:11.770Z,91.02
2019-02-22T09:08:18.901Z,86.02
2019-02-22T09:09:24.413Z,83.85
2019-02-22T09:10:29.643Z,98.55
2019-02-22T09:11:37.357Z,104.80
2019-02-22T09:12:47.177Z,87.10
2019-02-22T09:13:52.321Z,89.58
2019-02-22T09:15:00.458Z,96.57
2019-02-22T09:16:10.385Z,91.10
2019-02-22T09:17:15.609Z,89.77
2019-02-22T09:18:22.103Z,86.90
2019-02-22T09:19:27.197Z,90.70
2019-02-22T09:20:37.970Z,95.85
2019-02-22T09:21:43.219Z,87.37
2019-02-22T09:22:48.396Z,99.52
2019-02-22T09:23:59.344Z,103.40
2019-02-22T09:25:05.178Z,92.47
2019-02-22T09:26:10.123Z,89.15
2019-02-22T09:27:20.702Z,82.45
2019-02-22T09:28:26.382Z,86.90
2019-02-22T09:29:31.604Z,91.82
2019-02-22T09:30:38.717Z,95.75
2019-02-22T09:31:44.725Z,97.82
2019-02-22T09:32:50.128Z,93.05
2019-02-22T09:33:56.112Z,96.90
2019-02-22T09:35:01.555Z,88.65
2019-02-22T09:36:06.725Z,94.00
2019-02-22T09:37:13.351Z,88.03
2019-02-22T09:38:25.059Z,95.55
2019-02-22T09:39:37.560Z,81.20
2019-02-22T09:40:45.185Z,83.33
2019-02-22T09:41:50.260Z,83.78
2019-02-22T09:42:55.414Z,82.55
2019-02-22T09:44:02.783Z,81.78
2019-02-22T09:45:12.566Z,83.40
2019-02-22T09:46:17.698Z,82.37
2019-02-22T09:47:23.209Z,94.58
2019-02-22T09:48:28.717Z,104.30
2019-02-22T09:49:33.688Z,91.90
2019-02-22T09:50:42.368Z,92.78
2019-02-22T09:51:47.724Z,90.32
2019-02-22T09:52:54.198Z,96.10
2019-02-22T09:54:00.181Z,100.53
2019-02-22T09:55:06.860Z,87.62
2019-02-22T09:56:13.675Z,89.60
2019-02-22T09:57:22.797Z,75.97
2019-02-22T09:58:30.977Z,76.42
2019-02-22T09:59:36.584Z,76.75
2019-02-22T10:00:43.027Z,74.20
2019-02-22T10:01:49.199Z,77.05
2019-02-22T10:02:55.065Z,76.80
2019-02-22T10:04:00.347Z,76.28
2019-02-22T10:05:05.988Z,68.07
2019-02-22T10:06:18.307Z,69.67
2019-02-22T10:07:28.147Z,73.37
2019-02-22T10:08:33.711Z,65.08
2019-02-22T10:09:38.539Z,70.15
2019-02-22T10:10:45.080Z,65.37
2019-02-22T10:11:51.079Z,68.78
2019-02-22T10:12:58.916Z,63.52
2019-02-22T10:14:06.869Z,65.62
2019-02-22T10:15:12.016Z,71.12
2019-02-22T10:16:17.093Z,74.40
2019-02-22T10:17:23.889Z,68.62
2019-02-22T10:18:30.555Z,61.15
2019-02-22T10:19:35.945Z,63.83
2019-02-22T10:20:48.895Z,57.80
2019-02-22T10:21:57.747Z,62.23
2019-02-22T10:23:03.197Z,62.70
2019-02-22T10:24:11.294Z,69.92
2019-02-22T10:25:19.132Z,67.12
2019-02-22T10:26:25.308Z,66.20
2019-02-22T10:27:30.338Z,58.28
2019-02-22T10:28:36.084Z,59.23
2019-02-22T10:29:45.426Z,53.52
2019-02-22T10:30:50.471Z,61.08
2019-02-22T10:31:58.256Z,65.90
2019-02-22T10:33:03.583Z,51.98
2019-02-22T10:34:10.654Z,54.33
2019-02-22T10:35:18.709Z,51.90
2019-02-22T10:36:26.457Z,51.60
2019-02-22T10:37:31.311Z,50.10
2019-02-22T10:38:36.499Z,52.70
2019-02-22T10:39:44.247Z,49.77
2019-02-22T10:40:50.382Z,50.10
2019-02-22T10:41:55.748Z,49.00
2019-02-22T10:43:00.927Z,55.08
2019-02-22T10:44:17.379Z,50.85
2019-02-22T10:45:15.093Z,49.75
2019-02-22T10:46:22.144Z,50.35
2019-02-22T10:47:26.480Z,56.15
2019-02-22T10:48:31.336Z,58.13
2019-02-22T10:49:36.814Z,50.23
2019-02-22T10:50:42.251Z,54.03
2019-02-22T10:51:47.776Z,51.02
2019-02-22T10:53:01.859Z,57.27
2019-02-22T10:54:00.090Z,49.70
2019-02-22T10:55:08.677Z,53.45
2019-02-22T10:56:13.483Z,44.73
2019-02-22T10:57:18.369Z,48.33
2019-02-22T10:58:23.462Z,41.98
2019-02-22T10:59:28.248Z,41.13
2019-02-22T11:00:37.570Z,48.65
2019-02-22T11:01:43.190Z,40.38
2019-02-22T11:02:48.186Z,37.73
2019-02-22T11:03:53.354Z,32.90
2019-02-22T11:04:58.483Z,31.17
2019-02-22T11:06:03.655Z,38.28
2019-02-22T11:07:08.794Z,31.45
2019-02-22T11:08:16.232Z,35.92
2019-02-22T11:09:21.736Z,37.33
2019-02-22T11:10:33.254Z,38.08
2019-02-22T11:11:37.431Z,34.73
2019-02-22T11:12:42.242Z,32.42
2019-02-22T11:13:49.808Z,40.50
2019-02-22T11:14:56.013Z,32.10
2019-02-22T11:16:01.054Z,30.23
2019-02-22T11:17:06.350Z,30.05
2019-02-22T11:18:11.305Z,39.60
2019-02-22T11:19:16.186Z,37.63
2019-02-22T11:20:24.196Z,36.17
2019-02-22T11:21:30.339Z,32.10
2019-02-22T11:22:55.375Z,31.70
2019-02-22T11:24:02.342Z,28.60
2019-02-22T11:25:10.860Z,26.90
2019-02-22T11:26:16.656Z,24.75
2019-02-22T11:27:23.788Z,24.75
2019-02-22T11:28:32.328Z,20.23
2019-02-22T11:29:49.422Z,22.95
2019-02-22T11:30:56.686Z,21.82
2019-02-22T11:32:03.264Z,21.75
2019-02-22T11:33:30.797Z,21.95
2019-02-22T11:34:38.920Z,21.12
2019-02-22T11:35:44.802Z,19.60
2019-02-22T11:36:50.422Z,23.65
2019-02-22T11:37:55.627Z,25.95
2019-02-22T11:39:03.761Z,18.95
2019-02-22T11:40:09.465Z,22.10
2019-02-22T11:41:18.283Z,21.30
2019-02-22T11:42:24.080Z,26.75
2019-02-22T11:43:30.372Z,25.15
2019-02-22T11:44:40.452Z,21.25
2019-02-22T11:45:45.301Z,19.23
2019-02-22T11:46:50.354Z,17.37
2019-02-22T11:47:55.582Z,19.20
2019-02-22T11:49:00.556Z,19.10
2019-02-22T11:50:06.721Z,24.32
2019-02-22T11:51:21.081Z,22.93
2019-02-22T11:52:28.996Z,23.22
2019-02-22T11:53:39.452Z,17.70
2019-02-22T11:54:46.457Z,15.65
2019-02-22T11:55:57.502Z,15.75
2019-02-22T11:57:04.269Z,17.02
2019-02-22T11:58:12.542Z,29.80
2019-02-22T11:59:18.747Z,31.42
2019-02-22T12:00:26.848Z,40.55
2019-02-22T12:01:36.223Z,25.40
2019-02-22T12:02:45.910Z,16.25
2019-02-22T12:03:51.371Z,16.80
2019-02-22T12:04:56.230Z,15.00
2019-02-22T12:06:04.288Z,13.25
2019-02-22T12:07:09.737Z,15.75
2019-02-22T12:08:14.693Z,14.30
2019-02-22T12:09:20.308Z,12.90
2019-02-22T12:10:28.581Z,9.45
2019-02-22T12:11:39.307Z,10.28
2019-02-22T12:12:44.468Z,10.48
2019-02-22T12:13:51.316Z,10.32
2019-02-22T12:14:57.708Z,10.82
2019-02-22T12:16:02.813Z,9.53
2019-02-22T12:17:07.855Z,9.55
2019-02-22T12:18:15.433Z,11.57
2019-02-22T12:19:20.308Z,9.08
2019-02-22T12:20:25.461Z,9.95
2019-02-22T12:21:30.686Z,9.88
2019-02-22T12:22:39.103Z,8.63
2019-02-22T12:23:44.429Z,9.08
2019-02-22T12:24:50.239Z,10.95
2019-02-22T12:25:55.356Z,9.45
2019-02-22T12:27:16.049Z,7.05
2019-02-22T12:28:25.855Z,8.55
2019-02-22T12:29:54.572Z,10.72
2019-02-22T12:31:00.300Z,8.35
2019-02-22T12:32:05.656Z,12.23
2019-02-22T12:33:11.228Z,8.85
2019-02-22T12:34:16.612Z,11.12
2019-02-22T12:35:26.759Z,8.45
2019-02-22T12:36:39.117Z,13.75
2019-02-22T12:37:46.717Z,9.40
2019-02-22T12:38:52.190Z,12.63
2019-02-22T12:39:57.342Z,10.85
2019-02-22T12:41:05.707Z,10.53
2019-02-22T12:42:14.934Z,15.48
2019-02-22T12:43:20.439Z,11.65
2019-02-22T12:44:25.755Z,18.42
2019-02-22T12:45:31.213Z,8.35
2019-02-22T12:46:37.877Z,10.10
2019-02-22T12:47:46.243Z,8.08
2019-02-22T12:48:51.236Z,11.73
2019-02-22T12:49:59.481Z,9.23
2019-02-22T12:51:04.926Z,8.05
2019-02-22T12:52:10.288Z,12.30
2019-02-22T12:53:15.189Z,17.65
2019-02-22T12:54:20.534Z,12.68
2019-02-22T12:59:19.136Z,10.68
2019-02-22T13:03:14.105Z,7.75
2019-02-22T13:04:23.092Z,9.10
2019-02-22T13:05:36.586Z,8.83
2019-02-22T13:06:44.392Z,9.25
2019-02-22T13:08:06.597Z,8.65
2019-02-22T13:09:12.964Z,7.95
2019-02-22T13:12:14.074Z,12.55
2019-02-22T13:15:48.588Z,11.18
2019-02-22T13:17:30.281Z,10.08
2019-02-22T13:18:33.190Z,10.32
2019-02-22T13:19:41.474Z,11.03
2019-02-22T13:20:53.187Z,10.38
2019-02-22T13:22:33.080Z,11.05
2019-02-22T13:23:38.116Z,7.58
2019-02-22T13:24:43.589Z,8.85
2019-02-22T13:25:50.250Z,6.30
2019-02-22T13:26:55.958Z,9.25
2019-02-22T13:28:03.396Z,11.28
2019-02-22T13:29:09.295Z,7.03
2019-02-22T13:30:23.728Z,10.50
2019-02-22T13:31:30.271Z,7.67
2019-02-22T13:32:35.354Z,10.53
2019-02-22T13:33:48.576Z,10.38
2019-02-22T13:34:54.958Z,11.50
2019-02-22T13:36:06.735Z,9.85
2019-02-22T13:37:18.342Z,9.55
2019-02-22T13:38:27.108Z,10.60
2019-02-22T13:39:33.353Z,12.85
2019-02-22T13:42:51.229Z,12.70
2019-02-22T13:43:59.601Z,20.10
2019-02-22T13:45:08.714Z,11.60
2019-02-22T13:47:26.318Z,13.03
2019-02-22T13:48:34.647Z,9.55
2019-02-22T13:49:40.149Z,8.10
2019-02-22T13:51:54.543Z,12.37
2019-02-22T13:53:01.918Z,12.53
2019-02-22T13:54:08.202Z,10.30
2019-02-22T13:55:55.840Z,10.23
2019-02-22T13:57:02.592Z,10.03
2019-02-22T13:58:11.601Z,9.93
2019-02-22T13:59:16.710Z,18.50
2019-02-22T14:00:21.779Z,11.22
2019-02-22T14:01:27.716Z,12.82
2019-02-22T14:02:39.227Z,11.43
2019-02-22T14:03:44.325Z,10.40
2019-02-22T14:04:55.513Z,11.45
2019-02-22T14:06:32.296Z,11.10
2019-02-22T14:07:40.205Z,10.28
2019-02-22T14:08:51.328Z,13.10
2019-02-22T14:10:03.303Z,12.53
2019-02-22T14:11:11.941Z,12.20
2019-02-22T14:12:20.603Z,15.48
2019-02-22T14:13:27.436Z,15.48
2019-02-22T14:14:32.625Z,13.35
2019-02-22T14:15:38.536Z,14.30
2019-02-22T14:16:43.864Z,15.53
2019-02-22T14:17:51.983Z,16.60
2019-02-22T14:18:57.406Z,11.53
2019-02-22T14:20:02.378Z,12.95
2019-02-22T14:21:10.783Z,10.93
2019-02-22T14:22:16.265Z,19.02
2019-02-22T14:23:22.187Z,15.95
2019-02-22T14:24:28.486Z,18.67
2019-02-22T14:25:39.698Z,22.25
2019-02-22T14:27:25.205Z,10.30
2019-02-22T14:28:34.841Z,16.95
2019-02-22T14:29:40.412Z,12.53
2019-02-22T14:30:45.914Z,11.43
2019-02-22T14:31:52.083Z,10.70
2019-02-22T14:32:57.190Z,15.40
2019-02-22T14:34:02.372Z,19.20